Time;durP1;ratioP1;P1;durP2;ratioP2;P2;SDS_P1;SDS_P2;PMS_P1;PMS_P2;Temp;Humidity;BMP_temperature;BMP_pressure;BME280_temperature;BME280_humidity;BME280_pressure;Samples;Min_cycle;Max_cycle;Signal;HPM_P1;HPM_P2
2024/03/03 00:01:05;;;;;;;4.25;2.92;;;13.90;81.70;;;;;;4782811;29;20031;-83
2024/03/03 00:03:35;;;;;;;4.78;3.08;;;13.90;81.70;;;;;;4782916;29;20055;-89
2024/03/03 00:06:00;;;;;;;4.60;3.25;;;13.90;81.70;;;;;;4770438;29;20496;-88
2024/03/03 00:08:26;;;;;;;4.22;2.92;;;13.80;81.70;;;;;;4793317;29;20400;-83
2024/03/03 00:10:53;;;;;;;4.38;3.25;;;13.90;81.70;;;;;;4789971;29;20090;-83
2024/03/03 00:13:19;;;;;;;3.58;3.00;;;13.80;81.70;;;;;;4777780;29;20035;-90
2024/03/03 00:15:44;;;;;;;4.47;3.15;;;13.80;82.30;;;;;;4782927;29;20087;-89
2024/03/03 00:18:13;;;;;;;4.15;3.10;;;13.80;81.70;;;;;;4783459;29;20094;-88
2024/03/03 00:20:43;;;;;;;4.13;3.17;;;13.80;81.70;;;;;;4767809;29;20030;-81
2024/03/03 00:23:09;;;;;;;4.50;3.40;;;13.80;81.80;;;;;;4799518;29;20030;-87
2024/03/03 00:25:34;;;;;;;3.88;3.17;;;13.80;81.70;;;;;;4782613;29;20096;-87
2024/03/03 00:28:03;;;;;;;4.93;3.30;;;13.80;81.70;;;;;;4800547;29;20046;-89
2024/03/03 00:30:29;;;;;;;5.00;3.75;;;13.80;81.70;;;;;;4770320;29;20028;-90
2024/03/03 00:32:54;;;;;;;4.47;3.55;;;13.80;81.70;;;;;;4793026;29;20087;-89
2024/03/03 00:35:23;;;;;;;6.20;3.58;;;13.80;81.70;;;;;;4788933;29;20034;-82
2024/03/03 00:37:49;;;;;;;4.90;3.50;;;13.80;81.70;;;;;;4800442;29;20119;-83
2024/03/03 00:40:15;;;;;;;4.93;3.40;;;13.80;81.70;;;;;;4780864;29;20142;-82
2024/03/03 00:42:41;;;;;;;4.50;3.55;;;13.80;81.70;;;;;;4788473;29;20064;-82
2024/03/03 00:45:07;;;;;;;5.50;4.15;;;13.80;81.70;;;;;;4768866;29;20024;-83
2024/03/03 00:47:34;;;;;;;4.20;3.42;;;13.80;81.70;;;;;;4788785;29;20046;-82
2024/03/03 00:49:59;;;;;;;5.47;4.07;;;13.80;81.70;;;;;;4795132;29;20042;-88
2024/03/03 00:52:25;;;;;;;4.72;3.58;;;13.80;81.70;;;;;;4798383;29;20031;-82
2024/03/03 00:54:51;;;;;;;4.93;3.70;;;13.80;81.70;;;;;;4785530;29;20511;-85
2024/03/03 00:57:17;;;;;;;5.32;4.00;;;13.70;81.70;;;;;;4785297;29;20219;-81
2024/03/03 00:59:43;;;;;;;4.72;3.65;;;13.70;81.70;;;;;;4796022;29;20047;-82
2024/03/03 01:02:09;;;;;;;5.88;4.43;;;13.70;81.70;;;;;;4787383;29;20597;-82
2024/03/03 01:04:35;;;;;;;4.88;3.83;;;13.70;81.70;;;;;;4800648;29;20027;-89
2024/03/03 01:07:01;;;;;;;4.68;3.60;;;13.70;81.70;;;;;;4779763;29;20034;-84
2024/03/03 01:09:29;;;;;;;4.93;3.85;;;13.70;81.70;;;;;;4767539;29;20027;-88
2024/03/03 01:11:54;;;;;;;4.53;3.58;;;13.70;81.70;;;;;;4769034;29;20035;-88
2024/03/03 01:14:23;;;;;;;5.63;3.95;;;13.70;81.70;;;;;;4765933;29;20111;-90
2024/03/03 01:16:49;;;;;;;4.68;3.80;;;13.70;81.60;;;;;;4791444;29;20064;-89
2024/03/03 01:19:15;;;;;;;5.05;3.83;;;13.70;81.70;;;;;;4778892;29;20525;-90
2024/03/03 01:21:41;;;;;;;5.10;4.00;;;13.70;81.70;;;;;;4787836;29;20474;-90
2024/03/03 01:24:07;;;;;;;5.03;3.92;;;13.70;81.70;;;;;;4782816;29;20038;-89
2024/03/03 01:26:35;;;;;;;5.53;4.25;;;13.70;81.70;;;;;;4790852;29;20046;-88
2024/03/03 01:29:04;;;;;;;5.55;3.90;;;13.60;81.60;;;;;;4802082;29;20038;-85
2024/03/03 01:31:33;;;;;;;5.32;3.65;;;13.70;81.70;;;;;;4779083;29;20122;-83
2024/03/03 01:33:59;;;;;;;5.40;4.05;;;13.70;81.60;;;;;;4778179;29;20023;-88
2024/03/03 01:36:26;;;;;;;5.43;4.10;;;13.60;81.60;;;;;;4805424;29;20027;-90
2024/03/03 01:38:52;;;;;;;5.35;4.10;;;13.60;81.60;;;;;;4788666;29;20147;-82
2024/03/03 01:41:18;;;;;;;6.07;4.40;;;13.60;82.20;;;;;;4786355;29;20113;-90
2024/03/03 01:43:44;;;;;;;5.90;4.22;;;13.60;81.60;;;;;;4800991;29;20054;-89
2024/03/03 01:46:10;;;;;;;5.40;4.28;;;13.60;81.60;;;;;;4799677;29;20504;-88
2024/03/03 01:48:36;;;;;;;6.32;4.50;;;13.60;81.60;;;;;;4790879;29;20055;-88
2024/03/03 01:51:05;;;;;;;6.25;4.88;;;13.60;81.70;;;;;;4801742;29;20047;-88
2024/03/03 01:53:31;;;;;;;5.75;4.43;;;13.50;81.50;;;;;;4803608;29;20035;-88
2024/03/03 01:56:02;;;;;;;6.38;4.70;;;13.50;81.50;;;;;;4790001;29;20377;-88
2024/03/03 01:58:29;;;;;;;6.40;4.72;;;13.60;81.60;;;;;;4785104;29;20031;-88
2024/03/03 02:00:59;;;;;;;6.45;4.72;;;13.50;81.50;;;;;;4770093;29;20506;-82
2024/03/03 02:03:25;;;;;;;5.95;4.88;;;13.50;81.50;;;;;;4765635;29;20035;-82
2024/03/03 02:05:54;;;;;;;6.32;4.63;;;13.50;81.50;;;;;;4789404;29;20045;-90
2024/03/03 02:08:20;;;;;;;5.88;4.63;;;13.50;81.50;;;;;;4786978;29;20511;-82
2024/03/03 02:10:47;;;;;;;5.90;4.60;;;13.50;81.50;;;;;;4789975;29;20039;-83
2024/03/03 02:13:14;;;;;;;6.25;5.00;;;13.50;81.50;;;;;;4798565;29;20084;-82
2024/03/03 02:15:40;;;;;;;6.18;4.93;;;13.50;81.50;;;;;;4770909;29;20169;-89
2024/03/03 02:18:07;;;;;;;6.07;4.75;;;13.50;81.50;;;;;;4782863;29;20105;-89
2024/03/03 02:20:32;;;;;;;6.25;4.70;;;13.50;81.50;;;;;;4788009;29;20027;-88
2024/03/03 02:22:58;;;;;;;6.72;4.68;;;13.50;81.50;;;;;;4783648;29;20485;-83
2024/03/03 02:25:26;;;;;;;7.00;4.93;;;13.50;81.50;;;;;;4805415;29;20064;-90
2024/03/03 02:27:52;;;;;;;7.03;5.28;;;13.50;81.50;;;;;;4779832;29;20041;-88
2024/03/03 02:30:18;;;;;;;6.72;5.05;;;13.40;81.40;;;;;;4784007;29;20122;-81
2024/03/03 02:32:43;;;;;;;6.93;5.18;;;13.40;81.40;;;;;;4771510;29;20030;-90
2024/03/03 02:35:09;;;;;;;6.10;4.70;;;13.40;82.10;;;;;;4797036;29;20031;-82
2024/03/03 02:37:35;;;;;;;6.10;5.03;;;13.40;81.40;;;;;;4773370;29;20078;-81
2024/03/03 02:40:03;;;;;;;6.38;4.80;;;13.40;81.40;;;;;;4801107;29;20041;-90
2024/03/03 02:42:29;;;;;;;6.55;4.88;;;13.40;81.40;;;;;;4803364;29;20056;-89
2024/03/03 02:44:54;;;;;;;6.70;5.13;;;13.40;81.40;;;;;;4795083;29;20491;-82
2024/03/03 02:47:21;;;;;;;6.22;4.90;;;13.40;81.40;;;;;;4797760;29;20042;-89
2024/03/03 02:49:46;;;;;;;6.22;4.82;;;13.40;81.40;;;;;;4788761;29;20031;-81
2024/03/03 02:52:12;;;;;;;6.90;5.57;;;13.40;81.40;;;;;;4785927;29;20045;-90
2024/03/03 02:54:38;;;;;;;6.40;5.40;;;13.30;81.40;;;;;;4773985;29;20031;-82
2024/03/03 02:57:04;;;;;;;6.38;5.10;;;13.40;81.50;;;;;;4785886;29;20605;-82
2024/03/03 02:59:33;;;;;;;6.57;5.05;;;13.30;81.50;;;;;;4787076;29;20043;-81
2024/03/03 03:02:00;;;;;;;6.40;5.20;;;13.30;81.50;;;;;;4800213;29;20054;-81
2024/03/03 03:04:26;;;;;;;6.68;5.25;;;13.30;81.50;;;;;;4800599;29;20035;-88
2024/03/03 03:06:51;;;;;;;5.88;4.78;;;13.30;81.50;;;;;;4792251;29;20050;-90
2024/03/03 03:09:17;;;;;;;6.53;5.10;;;13.20;81.50;;;;;;4787316;29;20037;-88
2024/03/03 03:11:43;;;;;;;6.57;4.82;;;13.30;81.60;;;;;;4785950;29;20037;-90
2024/03/03 03:14:11;;;;;;;6.68;5.20;;;13.30;81.60;;;;;;4773234;29;20042;-83
2024/03/03 03:16:42;;;;;;;6.28;4.82;;;13.20;81.60;;;;;;4786364;29;20054;-82
2024/03/03 03:19:08;;;;;;;6.70;5.32;;;13.30;81.60;;;;;;4799689;29;20066;-90
2024/03/03 03:21:34;;;;;;;6.47;5.25;;;13.20;81.60;;;;;;4792053;29;20031;-82
2024/03/03 03:24:03;;;;;;;6.53;5.05;;;13.20;81.60;;;;;;4788558;29;20091;-90
2024/03/03 03:26:29;;;;;;;7.45;5.32;;;13.20;81.60;;;;;;4787300;29;20481;-81
2024/03/03 03:28:55;;;;;;;7.55;5.25;;;13.20;81.60;;;;;;4803963;29;20468;-82
2024/03/03 03:31:21;;;;;;;5.55;4.63;;;13.10;81.60;;;;;;4814232;29;20058;-81
2024/03/03 03:33:47;;;;;;;6.85;5.30;;;13.10;81.60;;;;;;4805471;29;20043;-82
2024/03/03 03:36:13;;;;;;;6.85;5.03;;;13.10;81.60;;;;;;4777305;29;20019;-83
2024/03/03 03:38:38;;;;;;;7.53;5.75;;;13.10;81.60;;;;;;4793575;29;20518;-86
2024/03/03 03:41:04;;;;;;;6.32;5.10;;;13.10;81.70;;;;;;4770280;29;20023;-81
2024/03/03 03:43:31;;;;;;;6.78;5.30;;;13.10;82.30;;;;;;4779841;29;20069;-90
2024/03/03 03:45:57;;;;;;;7.63;4.93;;;13.10;81.70;;;;;;4779948;29;20036;-90
2024/03/03 03:48:24;;;;;;;6.85;5.10;;;13.00;81.70;;;;;;4785869;29;20484;-89
2024/03/03 03:50:50;;;;;;;7.32;5.55;;;13.00;81.70;;;;;;4786945;29;20088;-88
2024/03/03 03:53:15;;;;;;;6.68;5.07;;;13.00;81.70;;;;;;4773440;29;20035;-88
2024/03/03 03:55:41;;;;;;;6.70;4.72;;;13.00;81.70;;;;;;4773065;29;20083;-81
2024/03/03 03:58:10;;;;;;;6.85;5.20;;;13.00;81.70;;;;;;4770166;29;20500;-82
2024/03/03 04:00:36;;;;;;;6.07;4.40;;;13.00;81.70;;;;;;4762495;29;20392;-82
2024/03/03 04:03:02;;;;;;;6.40;4.78;;;12.90;81.60;;;;;;4786413;29;20023;-83
2024/03/03 04:05:28;;;;;;;7.43;5.70;;;12.90;81.70;;;;;;4799077;29;20035;-82
2024/03/03 04:07:54;;;;;;;6.18;5.00;;;12.90;81.60;;;;;;4787486;29;20108;-89
2024/03/03 04:10:20;;;;;;;6.57;5.13;;;12.90;81.70;;;;;;4788704;29;20113;-89
2024/03/03 04:12:46;;;;;;;6.05;4.78;;;12.90;81.70;;;;;;4770117;29;20116;-82
2024/03/03 04:15:13;;;;;;;6.45;4.80;;;12.90;81.70;;;;;;4785031;29;20039;-90
2024/03/03 04:17:41;;;;;;;7.10;5.72;;;12.90;81.70;;;;;;4784627;29;20134;-82
2024/03/03 04:20:09;;;;;;;7.13;5.50;;;12.80;81.60;;;;;;4802761;29;20121;-90
2024/03/03 04:22:35;;;;;;;6.10;4.97;;;12.80;81.60;;;;;;4795682;29;20027;-88
2024/03/03 04:25:01;;;;;;;7.13;5.47;;;12.80;81.60;;;;;;4790036;29;20185;-82
2024/03/03 04:27:27;;;;;;;6.80;5.60;;;12.80;81.70;;;;;;4786764;29;20133;-88
2024/03/03 04:29:53;;;;;;;6.43;4.95;;;12.80;81.70;;;;;;4786082;29;20172;-91
2024/03/03 04:32:19;;;;;;;5.90;5.10;;;12.80;81.60;;;;;;4790174;29;20536;-88
2024/03/03 04:34:44;;;;;;;6.40;4.85;;;12.80;81.60;;;;;;4791053;29;20063;-90
2024/03/03 04:37:10;;;;;;;6.47;5.05;;;12.70;81.60;;;;;;4766988;29;20046;-91
2024/03/03 04:39:37;;;;;;;5.70;4.60;;;12.70;81.60;;;;;;4771435;29;20076;-83
2024/03/03 04:42:03;;;;;;;6.60;4.95;;;12.70;81.60;;;;;;4787807;29;20023;-83
2024/03/03 04:44:30;;;;;;;6.35;4.95;;;12.70;81.60;;;;;;4796071;29;20032;-89
2024/03/03 04:46:57;;;;;;;6.38;4.75;;;12.70;81.60;;;;;;4802888;29;20131;-91
2024/03/03 04:49:23;;;;;;;6.45;4.95;;;12.70;81.60;;;;;;4772560;29;20497;-83
2024/03/03 04:51:49;;;;;;;6.13;4.85;;;12.70;81.60;;;;;;4791457;29;20106;-91
2024/03/03 04:54:15;;;;;;;6.93;5.03;;;12.70;81.60;;;;;;4804010;29;20027;-82
2024/03/03 04:56:41;;;;;;;6.28;5.28;;;12.70;81.60;;;;;;4768110;29;20562;-88
2024/03/03 04:59:07;;;;;;;6.72;5.10;;;12.60;81.60;;;;;;4788896;29;20496;-82
2024/03/03 05:01:33;;;;;;;6.25;5.00;;;12.60;81.60;;;;;;4771489;29;20027;-89
2024/03/03 05:04:00;;;;;;;6.82;5.03;;;12.60;81.60;;;;;;4778989;29;20035;-89
2024/03/03 05:06:26;;;;;;;6.82;5.18;;;12.60;81.60;;;;;;4806908;29;20042;-84
2024/03/03 05:08:52;;;;;;;5.80;4.60;;;12.60;81.60;;;;;;4779660;29;20095;-92
2024/03/03 05:11:18;;;;;;;5.68;4.50;;;12.60;81.60;;;;;;4790689;29;20495;-82
2024/03/03 05:13:44;;;;;;;5.88;4.40;;;12.60;81.60;;;;;;4787971;29;20035;-91
2024/03/03 05:16:11;;;;;;;5.88;4.80;;;12.60;81.60;;;;;;4792042;29;20400;-91
2024/03/03 05:18:37;;;;;;;6.65;5.20;;;12.50;81.60;;;;;;4794548;29;20043;-81
2024/03/03 05:21:03;;;;;;;5.82;4.53;;;12.50;81.60;;;;;;4792414;29;20027;-90
2024/03/03 05:23:29;;;;;;;6.25;4.80;;;12.50;81.60;;;;;;4790774;29;20365;-89
2024/03/03 05:25:55;;;;;;;7.22;5.10;;;12.50;81.50;;;;;;4787966;29;20388;-83
2024/03/03 05:28:20;;;;;;;6.10;4.95;;;12.50;81.50;;;;;;4793642;29;20034;-89
2024/03/03 05:30:46;;;;;;;6.30;5.05;;;12.50;81.50;;;;;;4778326;29;20034;-87
2024/03/03 05:33:12;;;;;;;6.20;5.03;;;12.50;81.50;;;;;;4788480;29;20035;-89
2024/03/03 05:35:38;;;;;;;6.28;4.88;;;12.50;81.50;;;;;;4780636;29;20046;-91
2024/03/03 05:38:04;;;;;;;6.50;4.88;;;12.40;81.50;;;;;;4791616;29;20050;-82
2024/03/03 05:40:30;;;;;;;5.80;4.45;;;12.40;81.50;;;;;;4790244;29;20036;-82
2024/03/03 05:42:56;;;;;;;5.50;4.38;;;12.40;81.50;;;;;;4775336;29;20097;-90
2024/03/03 05:45:22;;;;;;;5.75;4.50;;;12.40;81.50;;;;;;4803501;29;20027;-82
2024/03/03 05:47:47;;;;;;;6.22;4.80;;;12.40;81.60;;;;;;4773486;29;20069;-90
2024/03/03 05:50:13;;;;;;;6.68;5.10;;;12.40;81.60;;;;;;4787917;29;20416;-82
2024/03/03 05:52:39;;;;;;;6.07;4.78;;;12.40;81.60;;;;;;4770173;29;20041;-90
2024/03/03 05:55:05;;;;;;;5.82;4.63;;;12.40;81.60;;;;;;4783474;29;20198;-91
2024/03/03 05:57:31;;;;;;;6.88;4.85;;;12.40;81.60;;;;;;4774328;29;20051;-89
2024/03/03 05:59:57;;;;;;;6.40;5.00;;;12.30;81.50;;;;;;4795678;29;20022;-91
2024/03/03 06:02:23;;;;;;;6.90;5.32;;;12.30;81.50;;;;;;4788881;29;20086;-90
2024/03/03 06:04:49;;;;;;;5.88;4.75;;;12.30;81.50;;;;;;4796987;29;20032;-82
2024/03/03 06:07:15;;;;;;;5.75;4.75;;;12.30;81.50;;;;;;4791386;29;20041;-82
2024/03/03 06:09:41;;;;;;;6.10;4.78;;;12.30;81.50;;;;;;4771779;29;20034;-90
2024/03/03 06:12:07;;;;;;;6.90;4.90;;;12.30;81.50;;;;;;4771612;29;20479;-88
2024/03/03 06:14:34;;;;;;;6.20;5.00;;;12.30;81.50;;;;;;4786174;29;20038;-83
2024/03/03 06:16:59;;;;;;;6.82;5.20;;;12.30;81.50;;;;;;4806786;29;20043;-92
2024/03/03 06:19:27;;;;;;;6.05;5.30;;;12.30;81.50;;;;;;4809311;29;20046;-88
2024/03/03 06:21:53;;;;;;;6.13;4.70;;;12.30;81.50;;;;;;4789711;29;20139;-90
2024/03/03 06:24:19;;;;;;;6.50;4.80;;;12.20;81.40;;;;;;4802786;29;20080;-90
2024/03/03 06:26:46;;;;;;;6.60;5.00;;;12.30;81.50;;;;;;4776579;29;20167;-82
2024/03/03 06:29:12;;;;;;;6.47;5.10;;;12.30;81.50;;;;;;4784409;29;20050;-90
2024/03/03 06:31:45;;;;;;;6.13;4.88;;;12.20;81.50;;;;;;4790730;29;20039;-82
2024/03/03 06:34:11;;;;;;;6.72;4.97;;;12.20;81.50;;;;;;4788687;29;20038;-82
2024/03/03 06:36:37;;;;;;;6.70;5.00;;;12.20;81.50;;;;;;4775694;29;20117;-89
2024/03/03 06:39:10;;;;;;;6.20;4.53;;;12.20;81.60;;;;;;4777316;29;20123;-84
2024/03/03 06:41:35;;;;;;;5.78;4.80;;;12.20;81.60;;;;;;4773646;29;20035;-90
2024/03/03 06:44:02;;;;;;;6.85;5.30;;;12.20;81.50;;;;;;4801927;29;20034;-90
2024/03/03 06:46:28;;;;;;;6.38;5.20;;;12.20;81.60;;;;;;4788046;29;20035;-81
2024/03/03 06:48:54;;;;;;;5.90;4.80;;;12.20;81.60;;;;;;4772344;30;20033;-83
2024/03/03 06:51:20;;;;;;;6.72;5.20;;;12.20;81.60;;;;;;4790115;29;20415;-89
2024/03/03 06:53:49;;;;;;;6.38;4.65;;;12.10;82.20;;;;;;4794138;29;20441;-90
2024/03/03 06:56:16;;;;;;;5.97;4.53;;;12.20;81.60;;;;;;4786609;29;20027;-92
2024/03/03 06:58:44;;;;;;;6.05;4.82;;;12.20;82.20;;;;;;4766222;29;20041;-92
2024/03/03 07:01:10;;;;;;;7.65;5.28;;;12.10;81.50;;;;;;4786756;29;20043;-90
2024/03/03 07:06:21;;;;;;;6.05;4.70;;;12.10;81.50;;;;;;4803254;29;20038;-84
2024/03/03 07:08:47;;;;;;;6.38;4.93;;;12.10;81.50;;;;;;4790647;29;20035;-82
2024/03/03 07:11:12;;;;;;;5.95;4.68;;;12.20;81.60;;;;;;4791964;29;20035;-91
2024/03/03 07:13:39;;;;;;;6.65;5.13;;;12.10;81.60;;;;;;4789151;29;20046;-89
2024/03/03 07:16:05;;;;;;;6.35;5.03;;;12.10;81.60;;;;;;4771540;29;20160;-82
2024/03/03 07:18:31;;;;;;;6.25;5.03;;;12.10;81.60;;;;;;4785491;29;20055;-87
2024/03/03 07:20:57;;;;;;;6.47;5.30;;;12.10;81.70;;;;;;4779175;29;20029;-82
2024/03/03 07:23:23;;;;;;;6.10;4.82;;;12.10;81.70;;;;;;4786426;29;20412;-82
2024/03/03 07:25:49;;;;;;;6.25;5.10;;;12.10;81.60;;;;;;4783958;29;20033;-88
2024/03/03 07:28:15;;;;;;;5.82;4.82;;;12.10;81.60;;;;;;4790132;29;20035;-89
2024/03/03 07:30:41;;;;;;;7.05;5.15;;;12.10;81.60;;;;;;4768183;29;20537;-88
2024/03/03 07:33:08;;;;;;;7.15;5.57;;;12.10;81.60;;;;;;4789973;29;20019;-91
2024/03/03 07:35:34;;;;;;;6.97;5.05;;;12.10;81.70;;;;;;4785182;29;20447;-83
2024/03/03 07:38:01;;;;;;;6.10;4.88;;;12.10;81.70;;;;;;4791385;29;20098;-91
2024/03/03 07:40:30;;;;;;;6.47;5.10;;;12.10;81.70;;;;;;4803005;29;20033;-91
2024/03/03 07:42:57;;;;;;;6.25;5.22;;;12.10;81.70;;;;;;4787081;29;20554;-82
2024/03/03 07:45:23;;;;;;;6.50;5.20;;;12.10;81.70;;;;;;4791443;29;20404;-93
2024/03/03 07:47:49;;;;;;;7.07;5.50;;;12.10;81.70;;;;;;4777471;29;20073;-81
2024/03/03 07:50:14;;;;;;;6.53;5.43;;;12.10;81.70;;;;;;4801305;29;20043;-94
2024/03/03 07:52:40;;;;;;;7.13;4.80;;;12.10;81.70;;;;;;4792799;29;20034;-91
2024/03/03 07:55:06;;;;;;;7.35;5.60;;;12.10;81.70;;;;;;4806068;29;20031;-92
2024/03/03 07:57:32;;;;;;;6.15;5.00;;;12.10;81.70;;;;;;4802276;29;20115;-82
2024/03/03 07:59:58;;;;;;;7.13;5.57;;;12.10;81.70;;;;;;4789537;29;20039;-81
2024/03/03 08:02:24;;;;;;;6.68;5.28;;;12.00;81.60;;;;;;4804525;29;20094;-82
2024/03/03 08:04:53;;;;;;;6.82;5.07;;;12.10;81.70;;;;;;4786325;29;20456;-93
2024/03/03 08:07:20;;;;;;;6.20;5.25;;;12.10;81.70;;;;;;4811963;29;20034;-91
2024/03/03 08:09:46;;;;;;;7.10;5.25;;;12.10;81.70;;;;;;4791143;29;20031;-92
2024/03/03 08:12:12;;;;;;;6.00;5.07;;;12.10;81.70;;;;;;4789759;29;20023;-82
2024/03/03 08:14:38;;;;;;;7.20;5.40;;;12.10;81.70;;;;;;4773238;29;20031;-81
2024/03/03 08:17:09;;;;;;;7.72;5.93;;;12.10;81.70;;;;;;4769410;29;20043;-91
2024/03/03 08:19:36;;;;;;;8.63;5.60;;;12.10;81.70;;;;;;4783991;29;20043;-81
2024/03/03 08:22:02;;;;;;;7.32;5.57;;;12.10;81.70;;;;;;4790089;29;20045;-92
2024/03/03 08:24:27;;;;;;;6.65;5.70;;;12.10;81.70;;;;;;4801667;29;20137;-90
2024/03/03 08:26:53;;;;;;;7.55;6.10;;;12.10;81.70;;;;;;4776985;29;20499;-90
2024/03/03 08:29:20;;;;;;;6.60;4.85;;;12.10;81.60;;;;;;4795704;29;20066;-81
2024/03/03 08:31:45;;;;;;;8.05;6.20;;;12.10;81.50;;;;;;4782112;29;20039;-82
2024/03/03 08:34:11;;;;;;;7.25;5.60;;;12.20;81.60;;;;;;4768152;29;20038;-92
2024/03/03 08:36:41;;;;;;;7.15;5.68;;;12.20;81.60;;;;;;4791124;29;20515;-91
2024/03/03 08:39:10;;;;;;;6.65;5.30;;;12.20;81.60;;;;;;4785504;29;20051;-84
2024/03/03 08:41:39;;;;;;;6.40;5.53;;;12.20;81.60;;;;;;4785955;29;20154;-88
2024/03/03 08:44:06;;;;;;;7.25;5.63;;;12.20;81.60;;;;;;4788748;29;20030;-87
2024/03/03 08:46:32;;;;;;;8.55;5.95;;;12.20;82.20;;;;;;4804165;29;20081;-82
2024/03/03 08:48:58;;;;;;;7.63;6.20;;;12.20;81.50;;;;;;4780021;29;20035;-87
2024/03/03 08:51:23;;;;;;;7.53;5.70;;;12.30;81.60;;;;;;4789629;29;20031;-90
2024/03/03 08:53:50;;;;;;;8.60;6.57;;;12.30;81.50;;;;;;4776025;29;20374;-88
2024/03/03 08:56:16;;;;;;;8.40;6.53;;;12.30;81.50;;;;;;4791662;29;20027;-84
2024/03/03 08:58:42;;;;;;;8.32;6.72;;;12.30;81.50;;;;;;4788905;29;20091;-91
2024/03/03 09:01:14;;;;;;;8.07;6.15;;;12.30;81.50;;;;;;4762289;29;20035;-83
2024/03/03 09:03:43;;;;;;;7.32;5.80;;;12.30;81.50;;;;;;4785357;29;20119;-83
2024/03/03 09:06:09;;;;;;;7.45;6.15;;;12.40;81.60;;;;;;4769314;29;20085;-94
2024/03/03 09:08:37;;;;;;;8.10;6.38;;;12.40;81.50;;;;;;4772207;29;20399;-82
2024/03/03 09:11:06;;;;;;;6.90;6.07;;;12.40;81.50;;;;;;4777264;29;20043;-88
2024/03/03 09:13:36;;;;;;;8.43;6.45;;;12.40;81.50;;;;;;4797201;29;20035;-91
2024/03/03 09:16:02;;;;;;;7.55;5.88;;;12.40;81.40;;;;;;4767514;29;20096;-86
2024/03/03 09:18:28;;;;;;;6.88;5.72;;;12.50;81.40;;;;;;4787561;29;20543;-90
2024/03/03 09:20:54;;;;;;;7.47;5.82;;;12.50;81.40;;;;;;4781478;29;20100;-83
2024/03/03 09:23:19;;;;;;;8.18;6.45;;;12.50;81.40;;;;;;4807003;29;20031;-89
2024/03/03 09:25:45;;;;;;;8.25;6.53;;;12.50;81.30;;;;;;4778336;29;20556;-93
2024/03/03 09:28:14;;;;;;;8.25;6.20;;;12.60;81.40;;;;;;4778022;29;20058;-92
2024/03/03 09:30:40;;;;;;;8.32;6.50;;;12.60;81.30;;;;;;4801046;29;20043;-91
2024/03/03 09:33:06;;;;;;;7.75;6.30;;;12.60;81.30;;;;;;4780548;29;20154;-95
2024/03/03 09:35:31;;;;;;;8.07;6.47;;;12.60;81.30;;;;;;4799469;29;20377;-82
2024/03/03 09:37:57;;;;;;;8.32;6.57;;;12.70;81.30;;;;;;4796118;29;20121;-86
2024/03/03 09:40:27;;;;;;;8.38;6.13;;;12.70;81.30;;;;;;4795906;29;20019;-91
2024/03/03 09:42:54;;;;;;;8.45;6.25;;;12.70;81.30;;;;;;4806482;29;20038;-80
2024/03/03 09:45:21;;;;;;;9.63;7.10;;;12.70;81.30;;;;;;4803337;29;20031;-84
2024/03/03 09:47:54;;;;;;;9.38;7.78;;;12.80;81.40;;;;;;4788303;29;20065;-84
2024/03/03 09:50:21;;;;;;;11.02;9.25;;;12.80;81.40;;;;;;4811446;29;20046;-84
2024/03/03 09:52:51;;;;;;;11.68;9.35;;;12.80;81.50;;;;;;4775946;29;20038;-86
2024/03/03 09:55:18;;;;;;;12.48;9.65;;;12.80;81.60;;;;;;4787547;29;20074;-84
2024/03/03 09:57:44;;;;;;;13.77;9.00;;;12.80;82.10;;;;;;4776239;29;20043;-86
2024/03/03 10:00:11;;;;;;;15.00;9.80;;;12.90;81.40;;;;;;4803326;29;20035;-84
2024/03/03 10:02:41;;;;;;;14.48;10.73;;;12.90;81.40;;;;;;4782563;29;20035;-85
2024/03/03 10:05:08;;;;;;;15.45;10.98;;;13.00;81.50;;;;;;4790183;29;20502;-85
2024/03/03 10:08:05;;;;;;;14.10;10.90;;;13.00;82.00;;;;;;4795564;29;20042;-80
2024/03/03 10:10:35;;;;;;;13.68;10.63;;;13.10;81.30;;;;;;4792199;29;20031;-79
2024/03/03 10:13:07;;;;;;;13.68;10.10;;;13.10;81.30;;;;;;4790874;29;20041;-80
2024/03/03 10:15:35;;;;;;;13.60;10.95;;;13.20;81.30;;;;;;4767255;29;20035;-86
2024/03/03 10:18:02;;;;;;;13.77;10.23;;;13.20;81.10;;;;;;4795903;29;20038;-86
2024/03/03 10:20:29;;;;;;;15.68;10.77;;;13.20;80.90;;;;;;4800446;29;20035;-84
2024/03/03 10:22:55;;;;;;;13.88;10.98;;;13.30;80.80;;;;;;4788297;29;20035;-88
2024/03/03 10:25:23;;;;;;;14.13;10.57;;;13.40;80.80;;;;;;4785368;30;20057;-82
2024/03/03 10:27:50;;;;;;;13.32;10.07;;;13.50;80.80;;;;;;4772514;29;20119;-86
2024/03/03 10:30:18;;;;;;;12.75;10.20;;;13.50;80.70;;;;;;4798559;29;20083;-90
2024/03/03 10:32:46;;;;;;;14.23;10.65;;;13.60;80.50;;;;;;4785133;29;20027;-80
2024/03/03 10:35:13;;;;;;;13.38;10.57;;;13.70;80.50;;;;;;4776209;29;20445;-78
2024/03/03 10:37:59;;;;;;;16.85;10.80;;;13.70;80.40;;;;;;4791239;29;20035;-86
2024/03/03 10:40:25;;;;;;;;;;;13.90;80.40;;;;;;4782733;29;20454;-80
2024/03/03 10:42:51;;;;;;;12.05;9.85;;;13.90;80.20;;;;;;4792820;29;20624;-83
2024/03/03 10:45:17;;;;;;;12.95;10.27;;;14.00;79.80;;;;;;4792521;29;20031;-86
2024/03/03 10:48:09;;;;;;;12.32;9.73;;;14.20;79.60;;;;;;4797574;29;20502;-88
2024/03/03 10:50:37;;;;;;;12.70;9.95;;;14.20;79.40;;;;;;4793606;29;20035;-88
2024/03/03 10:53:10;;;;;;;13.32;9.48;;;14.30;79.30;;;;;;4794723;29;20046;-80
2024/03/03 10:55:37;;;;;;;11.05;9.38;;;14.40;79.10;;;;;;4797729;29;20492;-85
2024/03/03 10:58:05;;;;;;;11.93;9.63;;;14.50;78.90;;;;;;4778336;29;20043;-86
2024/03/03 11:00:32;;;;;;;11.77;9.90;;;14.60;78.60;;;;;;4786589;29;20114;-86
2024/03/03 11:02:58;;;;;;;12.98;9.98;;;14.70;78.40;;;;;;4800658;29;20492;-86
2024/03/03 11:05:28;;;;;;;12.45;10.07;;;14.70;78.10;;;;;;4790698;29;20092;-87
2024/03/03 11:07:54;;;;;;;13.13;10.40;;;14.80;78.00;;;;;;4799354;29;20414;-86
2024/03/03 11:10:20;;;;;;;12.75;9.52;;;14.90;78.00;;;;;;4798681;29;20037;-87
2024/03/03 11:12:51;;;;;;;13.07;9.88;;;15.00;77.90;;;;;;4793560;29;20487;-78
2024/03/03 11:15:20;;;;;;;12.27;9.30;;;15.00;77.90;;;;;;4793656;29;20152;-86
2024/03/03 11:17:53;;;;;;;11.65;9.13;;;15.10;78.00;;;;;;4769108;29;20039;-78
2024/03/03 11:20:21;;;;;;;12.40;9.57;;;15.10;78.00;;;;;;4803239;29;20058;-86
2024/03/03 11:23:18;;;;;;;11.80;8.70;;;15.20;78.10;;;;;;4789230;29;20564;-87
2024/03/03 11:26:24;;;;;;;9.95;8.18;;;15.20;78.80;;;;;;4779388;29;20184;-91
2024/03/03 11:28:57;;;;;;;11.98;9.20;;;15.30;78.20;;;;;;4773201;29;20475;-82
2024/03/03 11:31:28;;;;;;;10.83;8.37;;;15.30;78.20;;;;;;4803283;29;20062;-78
2024/03/03 11:33:55;;;;;;;11.70;9.07;;;15.40;78.30;;;;;;4803321;29;20070;-85
2024/03/03 11:36:24;;;;;;;11.38;8.93;;;15.40;78.30;;;;;;4798850;29;20026;-87
2024/03/03 11:38:56;;;;;;;11.63;8.93;;;15.50;78.40;;;;;;4794212;29;20043;-85
2024/03/03 11:41:21;;;;;;;11.77;9.00;;;15.50;78.40;;;;;;4769641;29;20026;-89
2024/03/03 11:43:48;;;;;;;11.20;8.90;;;15.50;78.50;;;;;;4784541;29;20027;-79
2024/03/03 11:46:49;;;;;;;10.48;8.65;;;15.60;78.70;;;;;;4780539;29;20065;-78
2024/03/03 11:49:22;;;;;;;10.38;8.32;;;15.70;78.80;;;;;;4758531;30;20037;-84
2024/03/03 11:51:48;;;;;;;10.90;8.60;;;15.70;78.80;;;;;;4799527;29;20103;-77
2024/03/03 11:54:30;;;;;;;9.52;8.05;;;15.70;78.80;;;;;;4790835;29;20102;-84
2024/03/03 11:57:01;;;;;;;9.70;8.10;;;15.80;78.80;;;;;;4779793;29;20023;-85
2024/03/03 11:59:56;;;;;;;9.55;8.07;;;15.80;78.70;;;;;;4794588;29;20038;-78
2024/03/03 12:02:24;;;;;;;10.27;7.93;;;15.90;78.80;;;;;;4807815;29;20471;-85
2024/03/03 12:04:50;;;;;;;10.15;7.28;;;15.90;78.80;;;;;;4803792;29;20075;-85
2024/03/03 12:07:18;;;;;;;8.93;7.07;;;16.00;79.00;;;;;;4794921;29;20035;-88
2024/03/03 12:09:45;;;;;;;10.60;8.55;;;16.00;79.10;;;;;;4796975;29;20038;-78
2024/03/03 12:12:11;;;;;;;9.45;7.13;;;16.00;79.20;;;;;;4788978;29;20038;-78
2024/03/03 12:14:41;;;;;;;9.45;7.32;;;16.10;79.20;;;;;;4790224;29;20047;-78
2024/03/03 12:17:08;;;;;;;8.80;7.25;;;16.10;79.30;;;;;;4774554;29;20027;-79
2024/03/03 12:19:37;;;;;;;9.25;7.03;;;16.20;79.40;;;;;;4769928;29;20058;-78
2024/03/03 12:22:07;;;;;;;9.80;7.10;;;16.20;79.50;;;;;;4807925;29;20045;-84
2024/03/03 12:24:33;;;;;;;9.02;7.72;;;16.30;79.50;;;;;;4792906;29;20088;-88
2024/03/03 12:27:00;;;;;;;8.65;7.25;;;16.30;79.50;;;;;;4789199;29;20030;-79
2024/03/03 12:29:26;;;;;;;8.68;6.78;;;16.40;79.40;;;;;;4791108;29;20046;-77
2024/03/03 12:31:52;;;;;;;9.05;7.43;;;16.40;79.40;;;;;;4795306;29;20034;-80
2024/03/03 12:34:18;;;;;;;8.40;6.43;;;16.50;79.40;;;;;;4789232;29;20042;-84
2024/03/03 12:36:49;;;;;;;8.30;6.20;;;16.50;79.40;;;;;;4787476;29;20119;-84
2024/03/03 12:39:15;;;;;;;7.53;5.97;;;16.50;79.40;;;;;;4792108;29;20035;-79
2024/03/03 12:41:50;;;;;;;8.05;6.53;;;16.60;79.50;;;;;;4780891;29;20031;-84
2024/03/03 12:44:16;;;;;;;7.22;6.28;;;16.60;80.10;;;;;;4790594;29;20035;-84
2024/03/03 12:46:48;;;;;;;9.98;6.35;;;16.60;79.40;;;;;;4789018;29;20027;-79
2024/03/03 12:49:15;;;;;;;7.78;6.13;;;16.70;79.40;;;;;;4764442;29;20465;-78